sensor_id;sensor_type;location;lat;lon;timestamp;P1;durP1;ratioP1;P2;durP2;ratioP2
43150;SDS011;28755;51.478;5.702;2023-12-20T00:00:57;25.23;;;9.68;;
43150;SDS011;28755;51.478;5.702;2023-12-20T00:03:23;23.92;;;10.15;;
43150;SDS011;28755;51.478;5.702;2023-12-20T00:05:49;21.77;;;9.35;;
43150;SDS011;28755;51.478;5.702;2023-12-20T00:08:15;24.02;;;8.68;;
43150;SDS011;28755;51.478;5.702;2023-12-20T00:10:40;23.25;;;8.70;;
43150;SDS011;28755;51.478;5.702;2023-12-20T00:13:06;22.23;;;8.82;;
43150;SDS011;28755;51.478;5.702;2023-12-20T00:15:32;21.92;;;8.13;;
43150;SDS011;28755;51.478;5.702;2023-12-20T00:17:58;22.05;;;8.25;;
43150;SDS011;28755;51.478;5.702;2023-12-20T00:20:24;27.23;;;7.80;;
43150;SDS011;28755;51.478;5.702;2023-12-20T00:22:50;22.67;;;7.57;;
43150;SDS011;28755;51.478;5.702;2023-12-20T00:25:15;29.13;;;7.53;;
43150;SDS011;28755;51.478;5.702;2023-12-20T00:27:41;19.30;;;6.95;;
43150;SDS011;28755;51.478;5.702;2023-12-20T00:30:07;24.35;;;6.80;;
43150;SDS011;28755;51.478;5.702;2023-12-20T00:32:34;19.58;;;6.25;;
43150;SDS011;28755;51.478;5.702;2023-12-20T00:35:00;18.40;;;6.18;;
43150;SDS011;28755;51.478;5.702;2023-12-20T00:37:26;24.73;;;6.45;;
43150;SDS011;28755;51.478;5.702;2023-12-20T00:39:52;20.38;;;5.45;;
43150;SDS011;28755;51.478;5.702;2023-12-20T00:42:18;23.00;;;5.53;;
43150;SDS011;28755;51.478;5.702;2023-12-20T00:44:43;17.52;;;4.75;;
43150;SDS011;28755;51.478;5.702;2023-12-20T00:47:09;27.15;;;4.75;;
43150;SDS011;28755;51.478;5.702;2023-12-20T00:49:35;26.63;;;5.15;;
43150;SDS011;28755;51.478;5.702;2023-12-20T00:52:00;24.92;;;6.03;;
43150;SDS011;28755;51.478;5.702;2023-12-20T00:54:26;16.40;;;4.70;;
43150;SDS011;28755;51.478;5.702;2023-12-20T00:56:52;27.88;;;4.53;;
43150;SDS011;28755;51.478;5.702;2023-12-20T00:59:19;19.20;;;4.03;;
43150;SDS011;28755;51.478;5.702;2023-12-20T01:01:44;22.00;;;3.97;;
43150;SDS011;28755;51.478;5.702;2023-12-20T01:04:10;18.92;;;3.15;;
43150;SDS011;28755;51.478;5.702;2023-12-20T01:06:36;21.00;;;3.90;;
43150;SDS011;28755;51.478;5.702;2023-12-20T01:09:01;19.77;;;3.92;;
43150;SDS011;28755;51.478;5.702;2023-12-20T01:11:27;20.13;;;3.75;;
43150;SDS011;28755;51.478;5.702;2023-12-20T01:13:53;17.60;;;3.55;;
43150;SDS011;28755;51.478;5.702;2023-12-20T01:16:19;17.63;;;3.50;;
43150;SDS011;28755;51.478;5.702;2023-12-20T01:18:44;20.85;;;4.47;;
43150;SDS011;28755;51.478;5.702;2023-12-20T01:21:10;22.83;;;4.55;;
43150;SDS011;28755;51.478;5.702;2023-12-20T01:23:35;23.77;;;3.50;;
43150;SDS011;28755;51.478;5.702;2023-12-20T01:26:01;19.55;;;3.67;;
43150;SDS011;28755;51.478;5.702;2023-12-20T01:28:27;18.67;;;3.25;;
43150;SDS011;28755;51.478;5.702;2023-12-20T01:30:53;22.15;;;3.42;;
43150;SDS011;28755;51.478;5.702;2023-12-20T01:33:19;18.52;;;3.22;;
43150;SDS011;28755;51.478;5.702;2023-12-20T01:35:44;18.13;;;2.95;;
43150;SDS011;28755;51.478;5.702;2023-12-20T01:38:10;17.85;;;3.08;;
43150;SDS011;28755;51.478;5.702;2023-12-20T01:40:35;27.45;;;3.08;;
43150;SDS011;28755;51.478;5.702;2023-12-20T01:43:02;21.92;;;3.17;;
43150;SDS011;28755;51.478;5.702;2023-12-20T01:45:32;24.27;;;3.80;;
43150;SDS011;28755;51.478;5.702;2023-12-20T01:47:58;22.27;;;3.08;;
43150;SDS011;28755;51.478;5.702;2023-12-20T01:50:24;23.38;;;2.92;;
43150;SDS011;28755;51.478;5.702;2023-12-20T01:52:51;20.15;;;2.97;;
43150;SDS011;28755;51.478;5.702;2023-12-20T01:55:21;25.15;;;3.30;;
43150;SDS011;28755;51.478;5.702;2023-12-20T01:57:47;15.55;;;3.55;;
43150;SDS011;28755;51.478;5.702;2023-12-20T02:00:13;21.83;;;3.17;;
43150;SDS011;28755;51.478;5.702;2023-12-20T02:02:39;15.02;;;3.00;;
43150;SDS011;28755;51.478;5.702;2023-12-20T02:05:09;13.60;;;2.83;;
43150;SDS011;28755;51.478;5.702;2023-12-20T02:07:35;17.58;;;3.30;;
43150;SDS011;28755;51.478;5.702;2023-12-20T02:10:01;15.45;;;2.47;;
43150;SDS011;28755;51.478;5.702;2023-12-20T02:12:28;16.92;;;2.65;;
43150;SDS011;28755;51.478;5.702;2023-12-20T02:14:54;21.58;;;2.80;;
43150;SDS011;28755;51.478;5.702;2023-12-20T02:17:20;23.88;;;2.95;;
43150;SDS011;28755;51.478;5.702;2023-12-20T02:19:45;25.02;;;2.90;;
43150;SDS011;28755;51.478;5.702;2023-12-20T02:22:11;16.90;;;2.92;;
43150;SDS011;28755;51.478;5.702;2023-12-20T02:24:38;22.55;;;3.33;;
43150;SDS011;28755;51.478;5.702;2023-12-20T02:27:04;23.38;;;3.55;;
43150;SDS011;28755;51.478;5.702;2023-12-20T02:29:32;19.92;;;3.28;;
43150;SDS011;28755;51.478;5.702;2023-12-20T02:31:58;15.77;;;3.25;;
43150;SDS011;28755;51.478;5.702;2023-12-20T02:34:24;19.45;;;3.22;;
43150;SDS011;28755;51.478;5.702;2023-12-20T02:36:50;19.35;;;3.13;;
43150;SDS011;28755;51.478;5.702;2023-12-20T02:39:15;17.63;;;3.05;;
43150;SDS011;28755;51.478;5.702;2023-12-20T02:41:41;29.13;;;3.83;;
43150;SDS011;28755;51.478;5.702;2023-12-20T02:44:07;26.23;;;5.65;;
43150;SDS011;28755;51.478;5.702;2023-12-20T02:46:33;20.58;;;2.95;;
43150;SDS011;28755;51.478;5.702;2023-12-20T02:48:58;17.58;;;3.22;;
43150;SDS011;28755;51.478;5.702;2023-12-20T02:51:24;17.10;;;3.20;;
43150;SDS011;28755;51.478;5.702;2023-12-20T02:53:50;23.85;;;3.58;;
43150;SDS011;28755;51.478;5.702;2023-12-20T02:56:15;19.10;;;3.50;;
43150;SDS011;28755;51.478;5.702;2023-12-20T02:58:41;29.42;;;4.18;;
43150;SDS011;28755;51.478;5.702;2023-12-20T03:01:06;18.15;;;3.20;;
43150;SDS011;28755;51.478;5.702;2023-12-20T03:03:32;16.20;;;3.03;;
43150;SDS011;28755;51.478;5.702;2023-12-20T03:05:58;20.80;;;3.42;;
43150;SDS011;28755;51.478;5.702;2023-12-20T03:08:23;16.60;;;3.33;;
43150;SDS011;28755;51.478;5.702;2023-12-20T03:10:49;29.80;;;3.92;;
43150;SDS011;28755;51.478;5.702;2023-12-20T03:13:15;19.70;;;3.80;;
43150;SDS011;28755;51.478;5.702;2023-12-20T03:15:41;25.25;;;4.65;;
43150;SDS011;28755;51.478;5.702;2023-12-20T03:18:06;22.90;;;3.47;;
43150;SDS011;28755;51.478;5.702;2023-12-20T03:20:32;20.85;;;3.95;;
43150;SDS011;28755;51.478;5.702;2023-12-20T03:22:59;20.58;;;4.05;;
43150;SDS011;28755;51.478;5.702;2023-12-20T03:25:25;18.08;;;3.60;;
43150;SDS011;28755;51.478;5.702;2023-12-20T03:27:51;22.17;;;3.53;;
43150;SDS011;28755;51.478;5.702;2023-12-20T03:30:17;18.88;;;3.33;;
43150;SDS011;28755;51.478;5.702;2023-12-20T03:32:43;17.55;;;3.85;;
43150;SDS011;28755;51.478;5.702;2023-12-20T03:35:09;17.52;;;3.53;;
43150;SDS011;28755;51.478;5.702;2023-12-20T03:37:35;25.27;;;3.83;;
43150;SDS011;28755;51.478;5.702;2023-12-20T03:40:01;22.95;;;4.00;;
43150;SDS011;28755;51.478;5.702;2023-12-20T03:42:26;24.90;;;4.40;;
43150;SDS011;28755;51.478;5.702;2023-12-20T03:44:52;15.40;;;3.47;;
43150;SDS011;28755;51.478;5.702;2023-12-20T03:47:17;24.50;;;4.35;;
43150;SDS011;28755;51.478;5.702;2023-12-20T03:49:43;22.10;;;4.43;;
43150;SDS011;28755;51.478;5.702;2023-12-20T03:52:09;23.65;;;5.57;;
43150;SDS011;28755;51.478;5.702;2023-12-20T03:54:34;23.13;;;4.57;;
43150;SDS011;28755;51.478;5.702;2023-12-20T03:57:00;24.63;;;5.57;;
43150;SDS011;28755;51.478;5.702;2023-12-20T03:59:26;29.40;;;5.70;;
43150;SDS011;28755;51.478;5.702;2023-12-20T04:01:51;19.92;;;5.07;;
43150;SDS011;28755;51.478;5.702;2023-12-20T04:04:17;23.88;;;4.95;;
43150;SDS011;28755;51.478;5.702;2023-12-20T04:06:43;27.83;;;5.35;;
43150;SDS011;28755;51.478;5.702;2023-12-20T04:09:09;26.58;;;5.57;;
43150;SDS011;28755;51.478;5.702;2023-12-20T04:11:36;20.98;;;5.00;;
43150;SDS011;28755;51.478;5.702;2023-12-20T04:14:01;28.63;;;5.90;;
43150;SDS011;28755;51.478;5.702;2023-12-20T04:16:27;24.63;;;5.97;;
43150;SDS011;28755;51.478;5.702;2023-12-20T04:18:53;22.48;;;6.13;;
43150;SDS011;28755;51.478;5.702;2023-12-20T04:21:18;24.90;;;5.85;;
43150;SDS011;28755;51.478;5.702;2023-12-20T04:23:44;28.55;;;5.70;;
43150;SDS011;28755;51.478;5.702;2023-12-20T04:26:10;32.58;;;6.30;;
43150;SDS011;28755;51.478;5.702;2023-12-20T04:28:35;19.60;;;4.88;;
43150;SDS011;28755;51.478;5.702;2023-12-20T04:31:01;20.52;;;6.10;;
43150;SDS011;28755;51.478;5.702;2023-12-20T04:33:26;23.20;;;6.15;;
43150;SDS011;28755;51.478;5.702;2023-12-20T04:35:52;18.25;;;5.18;;
43150;SDS011;28755;51.478;5.702;2023-12-20T04:38:18;20.98;;;5.78;;
43150;SDS011;28755;51.478;5.702;2023-12-20T04:40:43;25.00;;;5.65;;
43150;SDS011;28755;51.478;5.702;2023-12-20T04:43:09;24.08;;;6.05;;
43150;SDS011;28755;51.478;5.702;2023-12-20T04:45:35;28.98;;;5.90;;
43150;SDS011;28755;51.478;5.702;2023-12-20T04:48:01;33.53;;;6.32;;
43150;SDS011;28755;51.478;5.702;2023-12-20T04:50:27;18.90;;;5.80;;
43150;SDS011;28755;51.478;5.702;2023-12-20T04:52:53;26.15;;;6.10;;
43150;SDS011;28755;51.478;5.702;2023-12-20T04:55:18;25.20;;;5.70;;
43150;SDS011;28755;51.478;5.702;2023-12-20T04:57:45;29.70;;;6.55;;
43150;SDS011;28755;51.478;5.702;2023-12-20T05:00:10;25.15;;;5.32;;
43150;SDS011;28755;51.478;5.702;2023-12-20T05:02:37;23.38;;;5.60;;
43150;SDS011;28755;51.478;5.702;2023-12-20T05:05:03;23.55;;;6.07;;
43150;SDS011;28755;51.478;5.702;2023-12-20T05:07:28;24.02;;;5.72;;
43150;SDS011;28755;51.478;5.702;2023-12-20T05:09:54;27.58;;;6.13;;
43150;SDS011;28755;51.478;5.702;2023-12-20T05:12:19;22.02;;;5.78;;
43150;SDS011;28755;51.478;5.702;2023-12-20T05:14:45;24.90;;;6.00;;
43150;SDS011;28755;51.478;5.702;2023-12-20T05:17:11;23.95;;;5.65;;
43150;SDS011;28755;51.478;5.702;2023-12-20T05:19:37;19.23;;;5.20;;
43150;SDS011;28755;51.478;5.702;2023-12-20T05:22:03;29.80;;;6.32;;
43150;SDS011;28755;51.478;5.702;2023-12-20T05:24:28;25.88;;;5.78;;
43150;SDS011;28755;51.478;5.702;2023-12-20T05:26:54;22.83;;;5.78;;
43150;SDS011;28755;51.478;5.702;2023-12-20T05:29:20;28.50;;;6.93;;
43150;SDS011;28755;51.478;5.702;2023-12-20T05:31:45;25.92;;;5.88;;
43150;SDS011;28755;51.478;5.702;2023-12-20T05:34:11;25.90;;;6.53;;
43150;SDS011;28755;51.478;5.702;2023-12-20T05:36:37;19.42;;;5.47;;
43150;SDS011;28755;51.478;5.702;2023-12-20T05:39:03;25.58;;;6.40;;
43150;SDS011;28755;51.478;5.702;2023-12-20T05:41:30;38.10;;;5.90;;
43150;SDS011;28755;51.478;5.702;2023-12-20T05:43:55;35.65;;;6.13;;
43150;SDS011;28755;51.478;5.702;2023-12-20T05:46:23;27.70;;;6.85;;
43150;SDS011;28755;51.478;5.702;2023-12-20T05:48:48;30.33;;;6.22;;
43150;SDS011;28755;51.478;5.702;2023-12-20T05:51:14;29.38;;;5.38;;
43150;SDS011;28755;51.478;5.702;2023-12-20T05:53:40;23.55;;;5.57;;
43150;SDS011;28755;51.478;5.702;2023-12-20T05:56:06;26.20;;;5.68;;
43150;SDS011;28755;51.478;5.702;2023-12-20T05:58:34;25.55;;;5.70;;
43150;SDS011;28755;51.478;5.702;2023-12-20T06:01:00;30.08;;;6.93;;
43150;SDS011;28755;51.478;5.702;2023-12-20T06:03:26;24.55;;;6.00;;
43150;SDS011;28755;51.478;5.702;2023-12-20T06:05:51;22.58;;;6.05;;
43150;SDS011;28755;51.478;5.702;2023-12-20T06:08:17;26.50;;;6.22;;
43150;SDS011;28755;51.478;5.702;2023-12-20T06:10:42;22.85;;;6.03;;
43150;SDS011;28755;51.478;5.702;2023-12-20T06:13:08;28.33;;;5.90;;
43150;SDS011;28755;51.478;5.702;2023-12-20T06:15:34;25.88;;;6.75;;
43150;SDS011;28755;51.478;5.702;2023-12-20T06:18:00;28.35;;;5.85;;
43150;SDS011;28755;51.478;5.702;2023-12-20T06:20:26;19.95;;;6.20;;
43150;SDS011;28755;51.478;5.702;2023-12-20T06:22:51;31.20;;;6.75;;
43150;SDS011;28755;51.478;5.702;2023-12-20T06:25:17;31.85;;;6.50;;
43150;SDS011;28755;51.478;5.702;2023-12-20T06:27:42;22.80;;;5.35;;
43150;SDS011;28755;51.478;5.702;2023-12-20T06:30:08;28.40;;;6.68;;
43150;SDS011;28755;51.478;5.702;2023-12-20T06:32:34;26.42;;;5.90;;
43150;SDS011;28755;51.478;5.702;2023-12-20T06:35:00;27.20;;;5.75;;
43150;SDS011;28755;51.478;5.702;2023-12-20T06:37:26;30.60;;;6.28;;
43150;SDS011;28755;51.478;5.702;2023-12-20T06:39:51;22.27;;;4.88;;
43150;SDS011;28755;51.478;5.702;2023-12-20T06:42:17;28.38;;;5.20;;
43150;SDS011;28755;51.478;5.702;2023-12-20T06:44:43;28.80;;;5.38;;
43150;SDS011;28755;51.478;5.702;2023-12-20T06:47:09;19.70;;;5.25;;
43150;SDS011;28755;51.478;5.702;2023-12-20T06:49:34;20.58;;;4.75;;
43150;SDS011;28755;51.478;5.702;2023-12-20T06:52:00;23.80;;;5.25;;
43150;SDS011;28755;51.478;5.702;2023-12-20T06:54:25;29.23;;;5.38;;
43150;SDS011;28755;51.478;5.702;2023-12-20T06:56:51;17.90;;;4.18;;
43150;SDS011;28755;51.478;5.702;2023-12-20T06:59:17;28.75;;;5.00;;
43150;SDS011;28755;51.478;5.702;2023-12-20T07:01:42;22.85;;;5.07;;
43150;SDS011;28755;51.478;5.702;2023-12-20T07:04:12;23.25;;;4.57;;
43150;SDS011;28755;51.478;5.702;2023-12-20T07:06:38;31.02;;;5.32;;
43150;SDS011;28755;51.478;5.702;2023-12-20T07:09:03;25.70;;;5.20;;
43150;SDS011;28755;51.478;5.702;2023-12-20T07:11:29;32.63;;;5.53;;
43150;SDS011;28755;51.478;5.702;2023-12-20T07:13:54;21.88;;;4.97;;
43150;SDS011;28755;51.478;5.702;2023-12-20T07:16:20;26.35;;;4.75;;
43150;SDS011;28755;51.478;5.702;2023-12-20T07:18:46;27.83;;;4.93;;
43150;SDS011;28755;51.478;5.702;2023-12-20T07:21:12;21.40;;;5.18;;
43150;SDS011;28755;51.478;5.702;2023-12-20T07:23:37;20.92;;;5.03;;
43150;SDS011;28755;51.478;5.702;2023-12-20T07:26:03;23.77;;;4.82;;
43150;SDS011;28755;51.478;5.702;2023-12-20T07:28:29;32.70;;;5.88;;
43150;SDS011;28755;51.478;5.702;2023-12-20T07:30:55;24.92;;;5.20;;
43150;SDS011;28755;51.478;5.702;2023-12-20T07:33:20;32.67;;;4.95;;
43150;SDS011;28755;51.478;5.702;2023-12-20T07:35:46;25.60;;;4.95;;
43150;SDS011;28755;51.478;5.702;2023-12-20T07:38:12;26.17;;;5.55;;
43150;SDS011;28755;51.478;5.702;2023-12-20T07:40:37;23.58;;;4.93;;
43150;SDS011;28755;51.478;5.702;2023-12-20T07:43:04;24.75;;;4.78;;
43150;SDS011;28755;51.478;5.702;2023-12-20T07:45:29;22.23;;;4.32;;
43150;SDS011;28755;51.478;5.702;2023-12-20T07:47:55;17.88;;;4.35;;
43150;SDS011;28755;51.478;5.702;2023-12-20T07:50:21;25.23;;;4.65;;
43150;SDS011;28755;51.478;5.702;2023-12-20T07:52:46;19.38;;;4.85;;
43150;SDS011;28755;51.478;5.702;2023-12-20T07:55:12;19.83;;;4.20;;
43150;SDS011;28755;51.478;5.702;2023-12-20T07:57:37;14.27;;;3.95;;
43150;SDS011;28755;51.478;5.702;2023-12-20T08:00:03;21.45;;;4.03;;
43150;SDS011;28755;51.478;5.702;2023-12-20T08:02:30;22.77;;;4.15;;
43150;SDS011;28755;51.478;5.702;2023-12-20T08:04:56;31.10;;;4.72;;
43150;SDS011;28755;51.478;5.702;2023-12-20T08:07:21;20.27;;;4.35;;
43150;SDS011;28755;51.478;5.702;2023-12-20T08:09:47;15.80;;;3.67;;
43150;SDS011;28755;51.478;5.702;2023-12-20T08:12:12;19.27;;;4.05;;
43150;SDS011;28755;51.478;5.702;2023-12-20T08:14:38;20.73;;;4.72;;
43150;SDS011;28755;51.478;5.702;2023-12-20T08:17:03;24.75;;;4.07;;
43150;SDS011;28755;51.478;5.702;2023-12-20T08:19:29;20.58;;;4.00;;
43150;SDS011;28755;51.478;5.702;2023-12-20T08:21:55;24.50;;;3.97;;
43150;SDS011;28755;51.478;5.702;2023-12-20T08:24:20;20.90;;;3.90;;
43150;SDS011;28755;51.478;5.702;2023-12-20T08:26:46;14.68;;;3.08;;
43150;SDS011;28755;51.478;5.702;2023-12-20T08:29:15;24.17;;;4.25;;
43150;SDS011;28755;51.478;5.702;2023-12-20T08:31:40;19.88;;;3.85;;
43150;SDS011;28755;51.478;5.702;2023-12-20T08:34:06;21.85;;;3.80;;
43150;SDS011;28755;51.478;5.702;2023-12-20T08:36:31;29.77;;;4.45;;
43150;SDS011;28755;51.478;5.702;2023-12-20T08:38:57;22.60;;;3.90;;
43150;SDS011;28755;51.478;5.702;2023-12-20T08:41:22;20.38;;;3.85;;
43150;SDS011;28755;51.478;5.702;2023-12-20T08:43:48;24.08;;;4.57;;
43150;SDS011;28755;51.478;5.702;2023-12-20T08:46:14;25.95;;;3.75;;
43150;SDS011;28755;51.478;5.702;2023-12-20T08:48:40;28.98;;;4.28;;
43150;SDS011;28755;51.478;5.702;2023-12-20T08:51:05;22.90;;;4.20;;
43150;SDS011;28755;51.478;5.702;2023-12-20T08:53:33;15.73;;;3.58;;
43150;SDS011;28755;51.478;5.702;2023-12-20T08:55:59;23.48;;;3.60;;
43150;SDS011;28755;51.478;5.702;2023-12-20T08:58:26;25.88;;;3.90;;
43150;SDS011;28755;51.478;5.702;2023-12-20T09:00:55;30.58;;;4.63;;
43150;SDS011;28755;51.478;5.702;2023-12-20T09:03:22;17.65;;;3.47;;
43150;SDS011;28755;51.478;5.702;2023-12-20T09:05:47;24.23;;;4.57;;
43150;SDS011;28755;51.478;5.702;2023-12-20T09:08:13;24.42;;;5.18;;
43150;SDS011;28755;51.478;5.702;2023-12-20T09:10:38;22.80;;;4.25;;
43150;SDS011;28755;51.478;5.702;2023-12-20T09:13:04;13.65;;;3.67;;
43150;SDS011;28755;51.478;5.702;2023-12-20T09:15:30;18.23;;;4.13;;
43150;SDS011;28755;51.478;5.702;2023-12-20T09:17:55;18.98;;;4.35;;
43150;SDS011;28755;51.478;5.702;2023-12-20T09:20:21;23.30;;;4.18;;
43150;SDS011;28755;51.478;5.702;2023-12-20T09:22:48;18.20;;;3.90;;
43150;SDS011;28755;51.478;5.702;2023-12-20T09:25:14;27.88;;;4.20;;
43150;SDS011;28755;51.478;5.702;2023-12-20T09:27:41;22.30;;;4.78;;
43150;SDS011;28755;51.478;5.702;2023-12-20T09:30:06;22.23;;;4.00;;
43150;SDS011;28755;51.478;5.702;2023-12-20T09:32:32;17.05;;;3.30;;
43150;SDS011;28755;51.478;5.702;2023-12-20T09:34:58;25.90;;;4.05;;
43150;SDS011;28755;51.478;5.702;2023-12-20T09:37:27;30.85;;;4.50;;
43150;SDS011;28755;51.478;5.702;2023-12-20T09:39:53;18.55;;;4.00;;
43150;SDS011;28755;51.478;5.702;2023-12-20T09:42:21;21.58;;;3.85;;
43150;SDS011;28755;51.478;5.702;2023-12-20T09:44:54;25.80;;;4.30;;
43150;SDS011;28755;51.478;5.702;2023-12-20T09:47:22;17.48;;;4.10;;
43150;SDS011;28755;51.478;5.702;2023-12-20T09:49:49;19.02;;;3.80;;
43150;SDS011;28755;51.478;5.702;2023-12-20T09:52:16;22.88;;;4.60;;
43150;SDS011;28755;51.478;5.702;2023-12-20T09:54:43;22.23;;;4.18;;
43150;SDS011;28755;51.478;5.702;2023-12-20T09:57:10;26.55;;;4.32;;
43150;SDS011;28755;51.478;5.702;2023-12-20T09:59:36;16.60;;;3.83;;
43150;SDS011;28755;51.478;5.702;2023-12-20T10:02:01;18.70;;;4.45;;
43150;SDS011;28755;51.478;5.702;2023-12-20T10:04:34;18.00;;;3.63;;
43150;SDS011;28755;51.478;5.702;2023-12-20T10:07:02;18.40;;;4.00;;
43150;SDS011;28755;51.478;5.702;2023-12-20T10:09:31;19.42;;;3.42;;
43150;SDS011;28755;51.478;5.702;2023-12-20T10:11:57;16.95;;;3.42;;
43150;SDS011;28755;51.478;5.702;2023-12-20T10:14:23;18.17;;;4.15;;
43150;SDS011;28755;51.478;5.702;2023-12-20T10:16:49;17.45;;;3.65;;
43150;SDS011;28755;51.478;5.702;2023-12-20T10:19:16;23.95;;;3.40;;
43150;SDS011;28755;51.478;5.702;2023-12-20T10:21:42;20.00;;;3.70;;
43150;SDS011;28755;51.478;5.702;2023-12-20T10:24:09;24.33;;;4.20;;
43150;SDS011;28755;51.478;5.702;2023-12-20T10:26:42;17.85;;;4.35;;
43150;SDS011;28755;51.478;5.702;2023-12-20T10:29:07;17.30;;;4.43;;
43150;SDS011;28755;51.478;5.702;2023-12-20T10:31:33;19.55;;;4.20;;
43150;SDS011;28755;51.478;5.702;2023-12-20T10:34:00;22.25;;;3.85;;
43150;SDS011;28755;51.478;5.702;2023-12-20T10:36:28;20.02;;;3.83;;
43150;SDS011;28755;51.478;5.702;2023-12-20T10:38:55;20.92;;;3.65;;
43150;SDS011;28755;51.478;5.702;2023-12-20T10:41:33;17.65;;;3.65;;
43150;SDS011;28755;51.478;5.702;2023-12-20T10:44:01;12.95;;;3.53;;
43150;SDS011;28755;51.478;5.702;2023-12-20T10:46:28;23.95;;;3.80;;
43150;SDS011;28755;51.478;5.702;2023-12-20T10:48:55;17.05;;;3.42;;
43150;SDS011;28755;51.478;5.702;2023-12-20T10:51:21;16.75;;;3.55;;
43150;SDS011;28755;51.478;5.702;2023-12-20T10:53:49;16.15;;;4.13;;
43150;SDS011;28755;51.478;5.702;2023-12-20T10:56:16;22.88;;;4.25;;
43150;SDS011;28755;51.478;5.702;2023-12-20T10:58:49;29.23;;;5.05;;
43150;SDS011;28755;51.478;5.702;2023-12-20T11:01:16;19.35;;;3.50;;
43150;SDS011;28755;51.478;5.702;2023-12-20T11:03:49;16.98;;;3.42;;
43150;SDS011;28755;51.478;5.702;2023-12-20T11:12:02;17.30;;;3.97;;
43150;SDS011;28755;51.478;5.702;2023-12-20T11:14:34;17.83;;;3.80;;
43150;SDS011;28755;51.478;5.702;2023-12-20T11:17:08;19.63;;;3.65;;
43150;SDS011;28755;51.478;5.702;2023-12-20T11:20:17;19.52;;;3.85;;
43150;SDS011;28755;51.478;5.702;2023-12-20T11:22:24;15.52;;;3.47;;
43150;SDS011;28755;51.478;5.702;2023-12-20T11:24:54;16.77;;;4.13;;
43150;SDS011;28755;51.478;5.702;2023-12-20T11:27:27;26.35;;;4.18;;
43150;SDS011;28755;51.478;5.702;2023-12-20T11:29:54;21.92;;;4.65;;
43150;SDS011;28755;51.478;5.702;2023-12-20T11:34:59;21.88;;;4.05;;
43150;SDS011;28755;51.478;5.702;2023-12-20T11:37:30;19.15;;;3.70;;
43150;SDS011;28755;51.478;5.702;2023-12-20T11:40:02;17.40;;;3.95;;
43150;SDS011;28755;51.478;5.702;2023-12-20T11:42:50;21.00;;;4.30;;
43150;SDS011;28755;51.478;5.702;2023-12-20T11:45:20;15.15;;;3.60;;
43150;SDS011;28755;51.478;5.702;2023-12-20T11:47:47;21.55;;;4.53;;
43150;SDS011;28755;51.478;5.702;2023-12-20T11:50:15;22.33;;;4.38;;
43150;SDS011;28755;51.478;5.702;2023-12-20T11:52:43;21.52;;;4.82;;
43150;SDS011;28755;51.478;5.702;2023-12-20T11:55:09;19.98;;;4.82;;
43150;SDS011;28755;51.478;5.702;2023-12-20T11:57:35;18.25;;;4.47;;
43150;SDS011;28755;51.478;5.702;2023-12-20T12:00:01;26.33;;;5.00;;
43150;SDS011;28755;51.478;5.702;2023-12-20T12:02:28;23.08;;;5.00;;
43150;SDS011;28755;51.478;5.702;2023-12-20T12:04:54;16.55;;;4.38;;
43150;SDS011;28755;51.478;5.702;2023-12-20T12:07:21;24.17;;;4.70;;
43150;SDS011;28755;51.478;5.702;2023-12-20T12:09:47;23.55;;;5.10;;
43150;SDS011;28755;51.478;5.702;2023-12-20T12:12:12;18.63;;;4.75;;
43150;SDS011;28755;51.478;5.702;2023-12-20T12:14:38;24.73;;;5.70;;
43150;SDS011;28755;51.478;5.702;2023-12-20T12:17:09;18.83;;;5.05;;
43150;SDS011;28755;51.478;5.702;2023-12-20T12:19:39;29.73;;;5.22;;
43150;SDS011;28755;51.478;5.702;2023-12-20T12:24:38;21.13;;;5.20;;
43150;SDS011;28755;51.478;5.702;2023-12-20T12:27:07;15.32;;;4.75;;
43150;SDS011;28755;51.478;5.702;2023-12-20T12:29:34;25.95;;;5.45;;
43150;SDS011;28755;51.478;5.702;2023-12-20T12:32:00;20.02;;;5.07;;
43150;SDS011;28755;51.478;5.702;2023-12-20T12:34:29;28.10;;;6.40;;
43150;SDS011;28755;51.478;5.702;2023-12-20T12:36:56;26.45;;;6.00;;
43150;SDS011;28755;51.478;5.702;2023-12-20T12:39:22;26.17;;;6.63;;
43150;SDS011;28755;51.478;5.702;2023-12-20T12:41:52;26.85;;;6.18;;
43150;SDS011;28755;51.478;5.702;2023-12-20T12:44:18;19.10;;;6.20;;
43150;SDS011;28755;51.478;5.702;2023-12-20T12:46:47;23.77;;;6.45;;
43150;SDS011;28755;51.478;5.702;2023-12-20T12:49:16;29.40;;;6.60;;
43150;SDS011;28755;51.478;5.702;2023-12-20T12:51:42;27.88;;;6.95;;
43150;SDS011;28755;51.478;5.702;2023-12-20T12:54:08;25.00;;;5.88;;
43150;SDS011;28755;51.478;5.702;2023-12-20T12:56:34;28.63;;;6.85;;
43150;SDS011;28755;51.478;5.702;2023-12-20T12:59:01;26.00;;;7.25;;
43150;SDS011;28755;51.478;5.702;2023-12-20T13:01:27;17.85;;;6.18;;
43150;SDS011;28755;51.478;5.702;2023-12-20T13:03:53;29.45;;;7.22;;
43150;SDS011;28755;51.478;5.702;2023-12-20T13:06:19;22.15;;;6.85;;
43150;SDS011;28755;51.478;5.702;2023-12-20T13:08:45;24.23;;;7.28;;
43150;SDS011;28755;51.478;5.702;2023-12-20T13:11:10;28.48;;;7.75;;
43150;SDS011;28755;51.478;5.702;2023-12-20T13:13:36;26.27;;;7.63;;
43150;SDS011;28755;51.478;5.702;2023-12-20T13:16:02;25.90;;;8.35;;
43150;SDS011;28755;51.478;5.702;2023-12-20T13:18:27;26.95;;;8.25;;
43150;SDS011;28755;51.478;5.702;2023-12-20T13:20:53;25.42;;;8.20;;
43150;SDS011;28755;51.478;5.702;2023-12-20T13:23:19;25.13;;;7.32;;
43150;SDS011;28755;51.478;5.702;2023-12-20T13:25:44;26.25;;;8.45;;
43150;SDS011;28755;51.478;5.702;2023-12-20T13:28:12;25.00;;;7.80;;
43150;SDS011;28755;51.478;5.702;2023-12-20T13:30:38;22.90;;;7.35;;
43150;SDS011;28755;51.478;5.702;2023-12-20T13:33:05;21.35;;;7.95;;
43150;SDS011;28755;51.478;5.702;2023-12-20T13:35:31;25.52;;;7.35;;
43150;SDS011;28755;51.478;5.702;2023-12-20T13:37:57;20.95;;;7.40;;
43150;SDS011;28755;51.478;5.702;2023-12-20T13:40:25;29.08;;;7.28;;
43150;SDS011;28755;51.478;5.702;2023-12-20T13:42:51;25.83;;;7.18;;
43150;SDS011;28755;51.478;5.702;2023-12-20T13:45:16;25.67;;;6.60;;
43150;SDS011;28755;51.478;5.702;2023-12-20T13:47:42;22.38;;;6.00;;
43150;SDS011;28755;51.478;5.702;2023-12-20T13:50:08;23.52;;;6.40;;
43150;SDS011;28755;51.478;5.702;2023-12-20T13:52:34;23.98;;;6.40;;
43150;SDS011;28755;51.478;5.702;2023-12-20T13:55:00;27.23;;;6.45;;
43150;SDS011;28755;51.478;5.702;2023-12-20T13:57:26;19.60;;;5.65;;
43150;SDS011;28755;51.478;5.702;2023-12-20T13:59:53;19.15;;;5.75;;
43150;SDS011;28755;51.478;5.702;2023-12-20T14:02:19;25.80;;;6.53;;
43150;SDS011;28755;51.478;5.702;2023-12-20T14:04:45;21.52;;;5.63;;
43150;SDS011;28755;51.478;5.702;2023-12-20T14:07:10;21.83;;;6.13;;
43150;SDS011;28755;51.478;5.702;2023-12-20T14:09:36;21.20;;;6.47;;
43150;SDS011;28755;51.478;5.702;2023-12-20T14:12:02;21.60;;;7.75;;
43150;SDS011;28755;51.478;5.702;2023-12-20T14:14:27;30.35;;;6.30;;
43150;SDS011;28755;51.478;5.702;2023-12-20T14:16:53;29.10;;;6.13;;
43150;SDS011;28755;51.478;5.702;2023-12-20T14:19:19;26.83;;;6.05;;
43150;SDS011;28755;51.478;5.702;2023-12-20T14:21:44;27.08;;;5.80;;
43150;SDS011;28755;51.478;5.702;2023-12-20T14:24:11;21.90;;;5.18;;
43150;SDS011;28755;51.478;5.702;2023-12-20T14:26:40;19.23;;;5.32;;
43150;SDS011;28755;51.478;5.702;2023-12-20T14:29:06;23.50;;;5.68;;
43150;SDS011;28755;51.478;5.702;2023-12-20T14:31:32;20.23;;;5.50;;
43150;SDS011;28755;51.478;5.702;2023-12-20T14:33:58;22.98;;;5.63;;
43150;SDS011;28755;51.478;5.702;2023-12-20T14:36:24;24.20;;;5.68;;
43150;SDS011;28755;51.478;5.702;2023-12-20T14:38:50;29.17;;;6.13;;